Time;durP1;ratioP1;P1;durP2;ratioP2;P2;SDS_P1;SDS_P2;PMS_P1;PMS_P2;Temp;Humidity;BMP_temperature;BMP_pressure;BME280_temperature;BME280_humidity;BME280_pressure;Samples;Min_cycle;Max_cycle;Signal;HPM_P1;HPM_P2
2024/01/19 00:04:11;;;;;;;37.53;22.07;;;5.20;99.90;;;;;;10255402;28;20231;-78
2024/01/19 00:09:14;;;;;;;26.03;16.57;;;4.80;99.90;;;;;;10269651;28;20909;-78
2024/01/19 00:14:16;;;;;;;18.23;11.53;;;5.40;99.90;;;;;;10270418;28;20671;-78
2024/01/19 00:19:19;;;;;;;28.00;17.77;;;5.10;99.90;;;;;;10273638;28;20301;-77
2024/01/19 00:24:21;;;;;;;26.33;15.27;;;5.10;99.90;;;;;;10269670;28;20297;-78
2024/01/19 00:29:24;;;;;;;26.40;17.70;;;5.40;99.90;;;;;;10275308;28;20221;-78
2024/01/19 00:34:27;;;;;;;19.03;13.70;;;5.00;99.90;;;;;;10291043;28;20656;-78
2024/01/19 00:39:29;;;;;;;22.77;13.57;;;4.80;99.90;;;;;;10289593;28;20233;-78
2024/01/19 00:44:32;;;;;;;41.70;23.33;;;4.00;99.90;;;;;;10291768;28;20277;-78
2024/01/19 00:49:34;;;;;;;26.77;18.03;;;3.90;99.90;;;;;;10290911;28;20639;-77
2024/01/19 00:54:37;;;;;;;27.23;17.27;;;2.40;99.90;;;;;;10288704;28;20336;-77
2024/01/19 00:59:39;;;;;;;15.00;9.63;;;1.70;99.90;;;;;;10258553;28;20225;-78
2024/01/19 01:04:42;;;;;;;15.40;9.53;;;2.40;99.90;;;;;;10252801;28;20286;-78
2024/01/19 01:09:44;;;;;;;19.30;12.37;;;3.50;99.90;;;;;;10271291;28;20243;-78
2024/01/19 01:14:47;;;;;;;24.27;15.37;;;4.10;99.90;;;;;;10258155;28;20791;-78
2024/01/19 01:19:50;;;;;;;15.07;9.07;;;4.10;99.90;;;;;;10250885;28;20232;-78
2024/01/19 01:24:52;;;;;;;14.53;9.37;;;5.50;99.90;;;;;;10253958;28;20288;-77
2024/01/19 01:29:55;;;;;;;9.80;6.20;;;6.70;99.90;;;;;;10289522;28;20266;-78
2024/01/19 01:34:57;;;;;;;16.30;10.30;;;7.40;99.90;;;;;;10272327;28;20246;-78
2024/01/19 01:40:00;;;;;;;22.83;15.23;;;7.60;99.90;;;;;;10289367;28;20695;-78
2024/01/19 01:45:03;;;;;;;21.23;13.77;;;7.30;99.90;;;;;;10264934;28;20238;-78
2024/01/19 01:50:07;;;;;;;24.60;15.73;;;6.60;99.90;;;;;;10270804;28;20261;-78
2024/01/19 01:55:10;;;;;;;22.30;15.27;;;5.60;99.90;;;;;;10271346;28;20318;-78
2024/01/19 02:00:16;;;;;;;33.07;18.83;;;4.50;99.90;;;;;;10261329;28;20242;-78
2024/01/19 02:05:18;;;;;;;36.00;22.50;;;2.30;99.90;;;;;;10281416;28;20799;-78
2024/01/19 02:10:21;;;;;;;36.13;21.70;;;-0.50;99.90;;;;;;10272153;28;20240;-78
2024/01/19 02:15:27;;;;;;;34.37;19.47;;;-1.20;99.90;;;;;;10285344;28;20659;-78
2024/01/19 02:20:30;;;;;;;33.60;21.07;;;0.20;99.90;;;;;;10262033;28;20747;-78
2024/01/19 02:25:32;;;;;;;30.67;18.07;;;-0.10;99.90;;;;;;10265288;28;20233;-78
2024/01/19 02:30:36;;;;;;;15.27;9.53;;;0.20;99.90;;;;;;10303889;28;20233;-78
2024/01/19 02:35:39;;;;;;;34.63;22.57;;;1.10;99.90;;;;;;10271896;28;20660;-77
2024/01/19 02:40:41;;;;;;;36.87;22.20;;;1.60;99.90;;;;;;10282845;28;20258;-78
2024/01/19 02:45:44;;;;;;;38.23;22.37;;;1.20;99.90;;;;;;10270313;28;20229;-78
2024/01/19 02:50:46;;;;;;;27.77;16.97;;;1.30;99.90;;;;;;10263216;28;20319;-78
2024/01/19 02:55:48;;;;;;;28.47;18.20;;;2.40;99.90;;;;;;10286960;28;20284;-78
2024/01/19 03:00:51;;;;;;;27.80;17.70;;;2.60;99.90;;;;;;10271031;28;20235;-78
2024/01/19 03:05:53;;;;;;;28.43;18.80;;;2.20;99.90;;;;;;10253388;28;20260;-78
2024/01/19 03:10:56;;;;;;;37.90;22.30;;;0.70;99.90;;;;;;10264230;28;20308;-78
2024/01/19 03:16:00;;;;;;;37.47;23.83;;;0.60;99.90;;;;;;10265860;28;20249;-78
2024/01/19 03:21:03;;;;;;;42.10;24.17;;;0.00;99.90;;;;;;10264830;28;20230;-77
2024/01/19 03:26:06;;;;;;;23.00;13.50;;;0.30;99.90;;;;;;10257971;28;20268;-78
2024/01/19 03:31:08;;;;;;;25.60;15.90;;;-0.60;99.90;;;;;;10252430;28;20237;-77
2024/01/19 03:36:11;;;;;;;30.57;19.00;;;0.40;99.90;;;;;;10280091;28;20249;-78
2024/01/19 03:41:13;;;;;;;20.50;10.87;;;2.60;99.90;;;;;;10290377;28;20639;-78
2024/01/19 03:46:16;;;;;;;21.73;12.60;;;4.50;99.90;;;;;;10270915;28;20229;-77
2024/01/19 03:51:19;;;;;;;28.73;17.33;;;5.60;99.90;;;;;;10269166;28;20257;-77
2024/01/19 03:56:21;;;;;;;40.83;23.50;;;4.90;99.90;;;;;;10258949;28;20331;-78
2024/01/19 04:01:24;;;;;;;40.93;24.30;;;2.50;99.90;;;;;;10263751;28;20257;-77
2024/01/19 04:06:26;;;;;;;41.70;25.17;;;0.50;99.90;;;;;;10257933;28;20715;-77
2024/01/19 04:11:29;;;;;;;40.17;24.43;;;0.00;99.90;;;;;;10274270;28;20230;-78
2024/01/19 04:16:31;;;;;;;41.30;24.50;;;-1.00;99.90;;;;;;10291120;28;20253;-78
2024/01/19 04:21:34;;;;;;;44.47;26.60;;;-2.00;99.90;;;;;;10270467;28;20253;-77
2024/01/19 04:26:37;;;;;;;49.03;27.10;;;-2.90;99.90;;;;;;10255691;28;20238;-77
2024/01/19 04:31:39;;;;;;;50.43;29.03;;;-3.30;99.90;;;;;;10257776;28;20230;-78
2024/01/19 04:36:45;;;;;;;47.30;27.87;;;-2.60;99.90;;;;;;10261242;28;20320;-78
2024/01/19 04:41:48;;;;;;;48.13;28.43;;;-1.90;99.90;;;;;;10267409;28;20230;-77
2024/01/19 04:46:50;;;;;;;48.93;27.27;;;-1.20;99.90;;;;;;10239196;28;20242;-78
2024/01/19 04:51:53;;;;;;;46.67;26.80;;;-1.30;99.90;;;;;;10251725;29;20735;-78
2024/01/19 04:56:55;;;;;;;50.43;27.60;;;-1.30;99.90;;;;;;10279234;28;20262;-78
2024/01/19 05:01:58;;;;;;;38.47;22.03;;;-1.70;99.90;;;;;;10269762;28;20256;-78
2024/01/19 05:07:00;;;;;;;36.63;20.90;;;-1.40;99.90;;;;;;10287743;28;20581;-78
2024/01/19 05:12:03;;;;;;;46.10;25.60;;;-0.40;99.90;;;;;;10283027;28;20692;-78
2024/01/19 05:17:06;;;;;;;41.30;24.83;;;-1.20;99.90;;;;;;10290321;28;20923;-78
2024/01/19 05:22:09;;;;;;;43.77;24.43;;;-1.80;99.90;;;;;;10288670;28;20296;-78
2024/01/19 05:27:11;;;;;;;48.80;25.37;;;-1.70;99.90;;;;;;10233469;28;20234;-77
2024/01/19 05:32:14;;;;;;;19.67;11.53;;;-1.80;99.90;;;;;;10250010;28;20286;-78
2024/01/19 05:37:17;;;;;;;37.07;22.13;;;-0.60;99.90;;;;;;10258931;28;20281;-78
2024/01/19 05:42:20;;;;;;;45.00;27.80;;;-1.00;99.90;;;;;;10270841;28;20233;-77
2024/01/19 05:47:22;;;;;;;53.43;34.33;;;-0.80;99.90;;;;;;10268173;28;20730;-78
2024/01/19 05:52:25;;;;;;;41.10;24.10;;;-0.50;99.90;;;;;;10273126;28;20269;-78
2024/01/19 05:57:28;;;;;;;33.73;21.97;;;-0.80;99.90;;;;;;10249283;28;20258;-77
2024/01/19 06:02:30;;;;;;;36.97;22.10;;;-1.00;99.90;;;;;;10249348;28;20238;-77
2024/01/19 06:07:34;;;;;;;26.27;17.00;;;-1.40;99.90;;;;;;10248705;28;20652;-77
2024/01/19 06:12:36;;;;;;;13.67;7.93;;;-1.10;99.90;;;;;;10271906;28;20245;-77
2024/01/19 06:17:39;;;;;;;25.53;17.03;;;1.00;99.90;;;;;;10271946;28;20253;-77
2024/01/19 06:22:43;;;;;;;33.13;18.20;;;2.00;99.90;;;;;;10247531;28;20242;-77
2024/01/19 06:27:46;;;;;;;26.17;13.93;;;2.20;99.90;;;;;;10260548;28;20300;-77
2024/01/19 06:32:48;;;;;;;22.67;11.57;;;3.50;99.90;;;;;;10286325;28;20597;-77
2024/01/19 06:37:51;;;;;;;8.97;5.93;;;3.80;99.90;;;;;;10263460;28;20312;-77
2024/01/19 06:42:54;;;;;;;8.80;5.83;;;5.20;99.90;;;;;;10252230;28;21261;-77
2024/01/19 06:47:59;;;;;;;18.23;8.00;;;6.10;99.90;;;;;;10260037;28;20242;-76
2024/01/19 06:53:04;;;;;;;16.17;6.90;;;6.50;99.90;;;;;;10287397;28;20241;-83
2024/01/19 06:58:06;;;;;;;13.03;7.23;;;6.30;99.90;;;;;;10264404;28;20254;-82
2024/01/19 07:03:09;;;;;;;20.57;11.87;;;6.30;99.90;;;;;;10247362;29;20575;-82
2024/01/19 07:08:13;;;;;;;31.30;17.20;;;6.40;99.90;;;;;;10228935;29;20281;-82
2024/01/19 07:13:15;;;;;;;14.97;9.53;;;5.70;99.90;;;;;;10247323;28;20777;-82
2024/01/19 07:18:18;;;;;;;28.63;17.00;;;5.00;99.90;;;;;;10247250;28;20261;-82
2024/01/19 07:23:20;;;;;;;19.50;11.30;;;4.10;99.90;;;;;;10235792;29;20202;-83
2024/01/19 07:28:23;;;;;;;22.80;12.93;;;4.50;99.90;;;;;;10301208;28;20226;-83
2024/01/19 07:33:26;;;;;;;22.90;14.23;;;5.30;99.90;;;;;;10306335;28;20234;-82
2024/01/19 07:38:34;;;;;;;21.20;12.13;;;3.90;99.90;;;;;;10247238;29;20746;-82
2024/01/19 07:43:37;;;;;;;24.97;16.17;;;4.60;99.90;;;;;;10249250;29;20230;-82
2024/01/19 07:48:39;;;;;;;30.07;17.13;;;5.50;99.90;;;;;;10279737;28;20291;-81
2024/01/19 07:53:42;;;;;;;17.93;10.20;;;5.10;99.90;;;;;;10285732;28;20300;-82
2024/01/19 07:58:45;;;;;;;25.77;14.83;;;5.20;99.90;;;;;;10268923;28;20258;-82
2024/01/19 08:03:47;;;;;;;25.27;15.33;;;5.90;99.90;;;;;;10286548;28;20237;-83
2024/01/19 08:08:50;;;;;;;14.07;8.43;;;5.80;99.90;;;;;;10259767;28;20767;-84
2024/01/19 08:13:52;;;;;;;11.57;6.30;;;6.30;99.90;;;;;;10246513;29;20628;-83
2024/01/19 08:18:56;;;;;;;22.50;9.87;;;6.90;99.90;;;;;;10277802;28;20925;-83
2024/01/19 08:24:00;;;;;;;10.53;5.77;;;7.20;99.90;;;;;;10277660;28;20237;-84
2024/01/19 08:29:03;;;;;;;12.80;6.47;;;7.40;99.90;;;;;;10241506;28;20752;-84
2024/01/19 08:34:05;;;;;;;5.33;3.13;;;8.30;99.90;;;;;;10277718;28;20289;-83
2024/01/19 08:39:11;;;;;;;12.43;7.77;;;8.80;99.90;;;;;;10235202;28;20261;-82
2024/01/19 08:44:13;;;;;;;15.27;7.60;;;8.80;99.90;;;;;;10234106;28;20246;-82
2024/01/19 08:49:16;;;;;;;9.40;3.90;;;;;;;;;;10262697;28;20702;-82
2024/01/19 08:54:19;;;;;;;9.10;4.17;;;;;;;;;;10272017;28;20327;-83
2024/01/19 08:59:22;;;;;;;5.80;3.43;;;10.50;99.90;;;;;;10266364;28;20695;-83
2024/01/19 09:04:25;;;;;;;14.10;8.50;;;;;;;;;;10267618;28;20309;-83
2024/01/19 09:09:29;;;;;;;10.20;5.93;;;;;;;;;;10261325;28;20234;-83
2024/01/19 09:14:31;;;;;;;7.10;4.30;;;10.60;99.90;;;;;;10252215;28;20230;-83
2024/01/19 09:19:34;;;;;;;3.63;2.77;;;10.80;99.90;;;;;;10233948;28;20258;-83
2024/01/19 09:24:40;;;;;;;12.13;5.67;;;10.80;99.90;;;;;;10274596;28;20669;-82
2024/01/19 09:29:47;;;;;;;13.27;6.83;;;10.70;99.90;;;;;;10287815;28;20266;-82
2024/01/19 09:34:50;;;;;;;7.83;4.77;;;10.70;99.90;;;;;;10291237;28;20264;-83
2024/01/19 09:39:53;;;;;;;7.73;5.50;;;10.70;99.90;;;;;;10290033;28;20269;-83
2024/01/19 09:45:04;;;;;;;6.50;4.00;;;10.80;99.90;;;;;;10272870;28;20247;-83
2024/01/19 09:50:10;;;;;;;7.93;5.27;;;10.80;99.90;;;;;;10257188;28;20293;-82
2024/01/19 09:55:14;;;;;;;12.10;6.37;;;11.10;99.90;;;;;;10239330;28;20803;-82
2024/01/19 10:00:18;;;;;;;7.83;4.63;;;11.10;99.90;;;;;;10234614;29;20655;-82
2024/01/19 10:05:21;;;;;;;8.13;3.73;;;10.80;99.90;;;;;;10249761;28;20233;-82
2024/01/19 10:10:25;;;;;;;8.07;4.47;;;10.80;99.90;;;;;;10248015;29;20243;-82
2024/01/19 10:15:28;;;;;;;12.50;4.67;;;11.00;99.90;;;;;;10250177;28;20258;-82
2024/01/19 10:20:31;;;;;;;12.23;8.03;;;11.10;99.90;;;;;;10247991;29;20321;-82
2024/01/19 10:25:34;;;;;;;7.93;4.90;;;11.20;99.90;;;;;;10247900;28;20970;-82
2024/01/19 10:30:37;;;;;;;9.30;4.47;;;10.90;99.90;;;;;;10287020;28;20237;-83
2024/01/19 10:35:41;;;;;;;12.13;7.37;;;10.80;99.90;;;;;;10286812;28;20245;-82
2024/01/19 10:40:44;;;;;;;6.07;3.93;;;11.00;99.90;;;;;;10287163;28;20709;-81
2024/01/19 10:45:46;;;;;;;10.47;6.37;;;11.90;99.90;;;;;;10287136;28;20241;-82
2024/01/19 10:50:49;;;;;;;13.17;7.10;;;12.50;99.90;;;;;;10260433;28;20265;-83
2024/01/19 10:55:52;;;;;;;6.23;4.63;;;;;;;;;;10229239;29;20277;-85
2024/01/19 11:01:11;;;;;;;10.70;6.93;;;12.40;99.90;;;;;;10246589;28;20786;-82
2024/01/19 11:06:13;;;;;;;7.37;3.67;;;13.10;99.90;;;;;;10246739;29;20261;-82
2024/01/19 11:11:20;;;;;;;10.50;4.07;;;12.80;99.90;;;;;;10246290;29;20254;-83
2024/01/19 11:16:25;;;;;;;7.77;4.47;;;13.70;99.90;;;;;;10229410;29;20229;-83
2024/01/19 11:21:28;;;;;;;16.50;8.30;;;12.80;99.90;;;;;;10278114;28;20658;-84
2024/01/19 11:26:43;;;;;;;11.13;7.37;;;12.50;99.90;;;;;;10286476;28;20296;-84
2024/01/19 11:31:47;;;;;;;7.50;4.10;;;12.40;99.90;;;;;;10260546;28;20713;-84
2024/01/19 11:36:50;;;;;;;8.50;3.73;;;;;;;;;;10281089;28;20624;-83
2024/01/19 11:41:53;;;;;;;9.33;5.23;;;11.60;99.90;;;;;;10268712;28;20309;-84
2024/01/19 11:46:55;;;;;;;9.40;5.30;;;12.30;99.90;;;;;;10269511;28;20225;-84
2024/01/19 11:52:00;;;;;;;8.73;4.47;;;11.80;99.90;;;;;;10247210;28;20657;-84
2024/01/19 11:57:18;;;;;;;8.60;4.43;;;11.20;99.90;;;;;;10253761;28;20993;-83
2024/01/19 12:02:30;;;;;;;12.43;7.90;;;;;;;;;;10253525;29;20670;-83
2024/01/19 12:07:34;;;;;;;4.33;2.73;;;;;;;;;;10277291;28;20238;-84
2024/01/19 12:12:37;;;;;;;7.07;4.37;;;;;;;;;;10293040;28;20238;-83
2024/01/19 12:17:40;;;;;;;7.07;4.10;;;;;;;;;;10253531;28;20752;-83
2024/01/19 12:22:44;;;;;;;8.97;4.87;;;;;;;;;;10266074;28;20295;-84
2024/01/19 12:27:48;;;;;;;9.30;4.93;;;;;;;;;;10274144;28;20685;-83
2024/01/19 12:32:51;;;;;;;7.17;3.60;;;;;;;;;;10256242;28;20230;-83
2024/01/19 12:37:53;;;;;;;9.83;4.87;;;;;;;;;;10285916;28;20285;-83
2024/01/19 12:43:02;;;;;;;7.93;4.43;;;;;;;;;;10268439;28;20694;-84
2024/01/19 12:48:06;;;;;;;6.60;3.53;;;;;;;;;;10247828;28;20622;-82
2024/01/19 12:53:20;;;;;;;4.87;3.07;;;;;;;;;;10258250;28;20223;-84
2024/01/19 12:58:23;;;;;;;5.47;3.30;;;;;;;;;;10253398;29;20855;-83
2024/01/19 13:03:25;;;;;;;6.97;2.97;;;;;;;;;;10254517;28;20285;-84
2024/01/19 13:08:28;;;;;;;7.13;4.03;;;;;;;;;;10257661;28;20345;-83
2024/01/19 13:13:31;;;;;;;7.67;3.60;;;;;;;;;;10268763;28;20214;-79
2024/01/19 13:18:37;;;;;;;5.37;2.87;;;;;;;;;;10275284;28;20774;-80
2024/01/19 13:23:43;;;;;;;5.40;2.60;;;;;;;;;;10307179;28;20220;-82
2024/01/19 13:28:50;;;;;;;6.80;3.70;;;;;;;;;;10297109;28;20243;-80
2024/01/19 13:33:52;;;;;;;5.23;2.90;;;;;;;;;;10296808;29;20237;-82
2024/01/19 13:38:55;;;;;;;6.77;3.27;;;;;;;;;;10329951;28;20209;-81
2024/01/19 13:43:58;;;;;;;3.97;1.93;;;;;;;;;;10319375;28;20256;-80
2024/01/19 13:49:02;;;;;;;3.03;1.50;;;;;;;;;;10340978;28;20197;-80
2024/01/19 13:54:05;;;;;;;3.60;1.93;;;;;;;;;;10340428;28;20243;-81
2024/01/19 13:59:08;;;;;;;6.33;3.30;;;;;;;;;;10308625;28;20218;-80
2024/01/19 14:04:11;;;;;;;4.80;1.97;;;;;;;;;;10335347;28;20529;-82
2024/01/19 14:09:14;;;;;;;4.17;1.97;;;;;;;;;;10294124;28;20258;-82
2024/01/19 14:14:17;;;;;;;6.57;2.20;;;;;;;;;;10292564;28;20218;-82
2024/01/19 14:19:20;;;;;;;6.23;1.93;;;;;;;;;;10293800;28;20223;-82
2024/01/19 14:24:23;;;;;;;2.43;1.47;;;;;;;;;;10256431;28;20583;-81
2024/01/19 14:29:26;;;;;;;2.60;1.87;;;;;;;;;;10271718;28;20203;-81
2024/01/19 14:34:33;;;;;;;3.13;2.27;;;;;;;;;;10295624;28;20889;-81
2024/01/19 14:39:48;;;;;;;4.87;1.87;;;;;;;;;;10274456;28;20313;-82
2024/01/19 14:44:50;;;;;;;2.97;1.33;;;;;;;;;;10259067;28;20264;-82
2024/01/19 14:49:55;;;;;;;8.03;3.50;;;;;;;;;;10272361;28;20286;-82
2024/01/19 14:55:02;;;;;;;4.40;1.70;;;;;;;;;;10269840;28;20266;-82
2024/01/19 15:00:08;;;;;;;1.00;0.60;;;;;;;;;;10268358;28;20644;-82
2024/01/19 15:05:12;;;;;;;8.80;3.20;;;;;;;;;;10289872;28;20229;-81
2024/01/19 15:10:15;;;;;;;7.20;4.03;;;;;;;;;;10294668;28;20211;-83
2024/01/19 15:15:18;;;;;;;5.27;3.10;;;;;;;;;;10293909;28;20264;-82
2024/01/19 15:20:21;;;;;;;6.37;3.30;;;;;;;;;;10291108;28;20218;-81
2024/01/19 15:25:24;;;;;;;4.37;2.43;;;;;;;;;;10276275;28;20198;-81
2024/01/19 15:30:28;;;;;;;2.63;2.10;;;;;;;;;;10261448;28;20215;-82
2024/01/19 15:35:41;;;;;;;2.87;2.03;;;;;;;;;;10269183;28;20211;-81
2024/01/19 15:40:44;;;;;;;6.77;2.70;;;;;;;;;;10256482;28;20242;-82
2024/01/19 15:45:47;;;;;;;4.93;2.93;;;;;;;;;;10257878;28;20199;-83
2024/01/19 15:50:49;;;;;;;5.50;2.77;;;;;;;;;;10285931;28;20238;-82
2024/01/19 15:55:55;;;;;;;9.37;4.73;;;;;;;;;;10243616;28;20723;-81
2024/01/19 16:01:01;;;;;;;10.80;6.50;;;;;;;;;;10257240;28;20262;-82
2024/01/19 16:06:07;;;;;;;9.73;4.37;;;;;;;;;;10287091;28;20265;-83
2024/01/19 16:11:11;;;;;;;13.97;7.00;;;;;;;;;;10261035;28;20214;-83
2024/01/19 16:16:15;;;;;;;9.70;5.63;;;;;;;;;;10246219;28;20272;-83
2024/01/19 16:21:21;;;;;;;14.60;6.43;;;;;;;;;;10278339;28;20258;-83
2024/01/19 16:26:25;;;;;;;11.93;6.10;;;;;;;;;;10278976;28;20259;-82
2024/01/19 16:31:29;;;;;;;14.90;6.80;;;;;;;;;;10258986;28;20334;-82
2024/01/19 16:36:33;;;;;;;7.47;4.60;;;;;;;;;;10253082;28;20684;-82
2024/01/19 16:41:42;;;;;;;10.80;5.67;;;10.60;99.90;;;;;;10255503;28;20303;-81
2024/01/19 16:46:45;;;;;;;15.43;9.33;;;10.60;99.90;;;;;;10227608;29;20234;-81
2024/01/19 16:51:48;;;;;;;6.03;4.33;;;10.30;99.90;;;;;;10251991;29;20267;-81
2024/01/19 16:56:52;;;;;;;16.90;7.10;;;10.00;99.90;;;;;;10239246;29;20246;-81
2024/01/19 17:01:55;;;;;;;8.20;3.60;;;10.10;99.90;;;;;;10232201;28;20254;-81
2024/01/19 17:06:58;;;;;;;14.37;6.93;;;10.20;99.90;;;;;;10245847;28;20273;-80
2024/01/19 17:12:00;;;;;;;13.73;4.57;;;10.20;99.90;;;;;;10267429;28;20245;-81
2024/01/19 17:17:03;;;;;;;11.97;6.93;;;10.60;99.90;;;;;;10286564;28;20285;-81
2024/01/19 17:22:06;;;;;;;6.80;4.47;;;10.20;99.90;;;;;;10255173;28;20306;-82
2024/01/19 17:27:08;;;;;;;17.83;7.10;;;10.40;99.90;;;;;;10255595;28;20655;-82
2024/01/19 17:32:11;;;;;;;14.20;7.20;;;9.90;99.90;;;;;;10250444;29;20242;-82
2024/01/19 17:37:14;;;;;;;19.93;9.47;;;9.90;99.90;;;;;;10233165;29;20230;-82
2024/01/19 17:42:17;;;;;;;15.13;7.03;;;9.30;99.90;;;;;;10232686;28;20266;-82
2024/01/19 17:47:20;;;;;;;16.77;8.23;;;9.40;99.90;;;;;;10233775;29;20245;-83
2024/01/19 17:52:23;;;;;;;17.57;7.53;;;9.30;99.90;;;;;;10249238;28;20242;-84
2024/01/19 17:57:25;;;;;;;14.37;7.37;;;9.40;99.90;;;;;;10249935;29;20391;-83
2024/01/19 18:02:28;;;;;;;14.27;6.90;;;10.00;99.90;;;;;;10233342;29;20258;-85
2024/01/19 18:07:30;;;;;;;13.03;7.03;;;9.10;99.90;;;;;;10231844;29;20219;-84
2024/01/19 18:12:33;;;;;;;11.97;7.57;;;9.50;99.90;;;;;;10250082;29;20202;-84
2024/01/19 18:17:37;;;;;;;18.40;9.37;;;9.90;99.90;;;;;;10249241;29;20246;-85
2024/01/19 18:22:40;;;;;;;12.37;6.93;;;9.50;99.90;;;;;;10249815;29;20293;-85
2024/01/19 18:27:43;;;;;;;8.60;4.50;;;9.80;99.90;;;;;;10249159;29;20246;-84
2024/01/19 18:32:46;;;;;;;13.07;7.33;;;10.20;99.90;;;;;;10233728;29;20207;-84
2024/01/19 18:37:52;;;;;;;7.60;3.53;;;9.90;99.90;;;;;;10234488;29;20211;-83
2024/01/19 18:42:56;;;;;;;13.43;6.90;;;10.00;99.90;;;;;;10250375;29;20227;-83
2024/01/19 18:48:00;;;;;;;12.10;5.97;;;10.20;99.90;;;;;;10231580;29;20210;-84
2024/01/19 18:53:03;;;;;;;15.07;6.87;;;10.20;99.90;;;;;;10231818;29;20289;-83
2024/01/19 18:58:06;;;;;;;24.10;10.73;;;10.00;99.90;;;;;;10247872;29;20751;-83
2024/01/19 19:03:09;;;;;;;10.57;3.97;;;9.70;99.90;;;;;;10247330;28;20265;-83
2024/01/19 19:08:13;;;;;;;13.40;7.43;;;10.10;99.90;;;;;;10229707;29;20242;-83
2024/01/19 19:13:15;;;;;;;12.63;5.73;;;10.80;99.90;;;;;;10249537;29;20258;-86
2024/01/19 19:18:18;;;;;;;18.23;11.43;;;10.90;99.90;;;;;;10280387;28;20202;-86
2024/01/19 19:23:21;;;;;;;29.97;18.57;;;10.50;99.90;;;;;;10262572;29;20221;-88
2024/01/19 19:28:23;;;;;;;189.37;94.57;;;9.30;99.90;;;;;;9923599;28;9999780;-88
2024/01/19 19:33:26;;;;;;;137.13;74.43;;;9.60;99.90;;;;;;10257280;28;20237;-87
2024/01/19 19:38:29;;;;;;;46.47;26.43;;;10.20;99.90;;;;;;10282321;28;20275;-90
2024/01/19 19:43:32;;;;;;;156.13;80.20;;;7.40;99.90;;;;;;10251624;29;20766;-90
2024/01/19 19:48:35;;;;;;;132.17;64.17;;;8.60;99.90;;;;;;10286258;28;20260;-88
2024/01/19 19:53:40;;;;;;;122.17;57.57;;;10.00;99.90;;;;;;10278402;28;20238;-88
2024/01/19 19:58:43;;;;;;;135.27;56.47;;;10.30;99.90;;;;;;10286318;28;20245;-88
2024/01/19 20:03:46;;;;;;;145.27;70.77;;;10.90;99.90;;;;;;10268600;28;20293;-89
2024/01/19 20:08:50;;;;;;;112.03;54.33;;;11.20;99.90;;;;;;10291219;28;20192;-88
2024/01/19 20:13:53;;;;;;;136.47;62.60;;;11.40;99.90;;;;;;10270841;28;20231;-88
2024/01/19 20:18:57;;;;;;;128.93;66.43;;;11.50;99.90;;;;;;10307615;28;20207;-89
2024/01/19 20:24:02;;;;;;;113.30;53.87;;;11.20;99.90;;;;;;10272840;28;20249;-89
2024/01/19 20:29:04;;;;;;;102.23;54.20;;;11.10;99.90;;;;;;10266047;28;20199;-88
2024/01/19 20:34:07;;;;;;;103.67;52.63;;;11.10;99.90;;;;;;10265575;29;20230;-88
2024/01/19 20:39:10;;;;;;;105.10;55.63;;;11.30;99.90;;;;;;10249516;29;20264;-88
2024/01/19 20:44:14;;;;;;;89.20;47.20;;;11.30;99.90;;;;;;10284017;28;20219;-88
2024/01/19 20:49:17;;;;;;;102.43;54.03;;;11.70;99.90;;;;;;10307321;28;20262;-88
2024/01/19 20:54:23;;;;;;;76.80;41.80;;;11.30;99.90;;;;;;10314652;28;20319;-89
2024/01/19 20:59:26;;;;;;;84.87;40.80;;;11.60;99.90;;;;;;10261366;29;20215;-89
2024/01/19 21:04:31;;;;;;;81.13;46.60;;;11.70;99.90;;;;;;10223340;29;20226;-88
2024/01/19 21:09:34;;;;;;;80.13;38.03;;;11.70;99.90;;;;;;10247738;29;20626;-88
2024/01/19 21:14:39;;;;;;;64.27;31.80;;;11.20;99.90;;;;;;10268199;29;20207;-89
2024/01/19 21:19:43;;;;;;;69.10;37.40;;;11.20;99.90;;;;;;10270419;29;20680;-88
2024/01/19 21:24:47;;;;;;;64.10;34.90;;;11.30;99.90;;;;;;10241021;28;20232;-88
2024/01/19 21:29:50;;;;;;;56.83;25.60;;;11.50;99.90;;;;;;10207807;29;20205;-89
2024/01/19 21:34:53;;;;;;;57.07;34.00;;;11.60;99.90;;;;;;10210392;29;20264;-89
2024/01/19 21:39:56;;;;;;;58.93;30.97;;;12.00;99.90;;;;;;10249068;29;20273;-89
2024/01/19 21:44:59;;;;;;;74.17;39.53;;;11.90;99.90;;;;;;10246355;29;20691;-87
2024/01/19 21:50:02;;;;;;;53.33;28.20;;;11.70;99.90;;;;;;10217468;28;20266;-87
2024/01/19 21:55:07;;;;;;;46.17;24.43;;;11.70;99.90;;;;;;10217628;29;20231;-87
2024/01/19 22:00:11;;;;;;;33.37;20.60;;;11.30;99.90;;;;;;10225810;28;20262;-88
2024/01/19 22:05:14;;;;;;;59.47;34.53;;;11.40;99.90;;;;;;10246596;29;20312;-87
2024/01/19 22:10:18;;;;;;;68.03;35.97;;;11.40;99.90;;;;;;10237491;29;20297;-87
2024/01/19 22:15:20;;;;;;;41.63;16.87;;;11.60;99.90;;;;;;10207508;29;20321;-88
2024/01/19 22:20:23;;;;;;;66.10;35.13;;;11.40;99.90;;;;;;10229564;28;20259;-87
2024/01/19 22:25:25;;;;;;;54.30;28.03;;;11.50;99.90;;;;;;10270149;28;20257;-87
2024/01/19 22:30:28;;;;;;;44.27;25.10;;;11.60;99.90;;;;;;10253025;28;20278;-88
2024/01/19 22:35:30;;;;;;;39.80;20.73;;;11.20;99.90;;;;;;10249260;28;20240;-87
2024/01/19 22:40:33;;;;;;;36.77;21.57;;;11.50;99.90;;;;;;10247794;28;20258;-87
2024/01/19 22:45:36;;;;;;;44.03;25.20;;;11.60;99.90;;;;;;10238799;29;20238;-87
2024/01/19 22:50:38;;;;;;;53.50;28.87;;;11.30;99.90;;;;;;10246168;28;20320;-88
2024/01/19 22:55:41;;;;;;;39.73;21.17;;;11.20;99.90;;;;;;10248233;29;20210;-87
2024/01/19 23:00:44;;;;;;;43.67;22.87;;;11.30;99.90;;;;;;10213158;28;20246;-87
2024/01/19 23:05:47;;;;;;;45.43;26.37;;;11.60;99.90;;;;;;10247188;28;20230;-88
2024/01/19 23:10:49;;;;;;;39.77;21.20;;;11.50;99.90;;;;;;10230302;29;20319;-89
2024/01/19 23:15:52;;;;;;;36.37;22.40;;;11.40;99.90;;;;;;10231227;28;21025;-88
2024/01/19 23:20:55;;;;;;;44.53;25.03;;;11.40;99.90;;;;;;10246994;29;20720;-89
2024/01/19 23:25:58;;;;;;;35.13;21.40;;;11.60;99.90;;;;;;10212583;29;20231;-89
2024/01/19 23:31:02;;;;;;;43.23;23.20;;;11.60;99.90;;;;;;10207153;28;20242;-90
2024/01/19 23:36:05;;;;;;;36.83;17.57;;;11.40;99.90;;;;;;10247075;29;20627;-89
2024/01/19 23:41:08;;;;;;;81.70;38.30;;;11.50;99.90;;;;;;10247647;28;20285;-89
2024/01/19 23:46:11;;;;;;;37.43;20.10;;;11.00;99.90;;;;;;10265675;28;20683;-87
2024/01/19 23:51:13;;;;;;;39.30;24.33;;;11.30;99.90;;;;;;10294096;28;20295;-90
2024/01/19 23:56:15;;;;;;;37.20;19.93;;;11.20;99.90;;;;;;10268282;28;20293;-89
